sensor_id;sensor_type;location;lat;lon;timestamp;temperature;humidity
78788;DHT22;68131;52.508;5.502;2024-02-14T00:01:48;9.00;82.00
78788;DHT22;68131;52.508;5.502;2024-02-14T00:04:17;9.00;82.20
78788;DHT22;68131;52.508;5.502;2024-02-14T00:06:47;9.00;82.10
78788;DHT22;68131;52.508;5.502;2024-02-14T00:09:16;9.00;82.30
78788;DHT22;68131;52.508;5.502;2024-02-14T00:11:45;9.10;82.30
78788;DHT22;68131;52.508;5.502;2024-02-14T00:14:14;9.10;82.40
78788;DHT22;68131;52.508;5.502;2024-02-14T00:16:48;9.00;82.50
78788;DHT22;68131;52.508;5.502;2024-02-14T00:19:17;9.10;82.60
78788;DHT22;68131;52.508;5.502;2024-02-14T00:21:46;9.10;82.70
78788;DHT22;68131;52.508;5.502;2024-02-14T00:24:15;9.10;82.70
78788;DHT22;68131;52.508;5.502;2024-02-14T00:26:45;9.10;82.80
78788;DHT22;68131;52.508;5.502;2024-02-14T00:29:15;9.10;82.80
78788;DHT22;68131;52.508;5.502;2024-02-14T00:31:47;9.10;82.80
78788;DHT22;68131;52.508;5.502;2024-02-14T00:34:16;9.20;82.90
78788;DHT22;68131;52.508;5.502;2024-02-14T00:36:45;9.20;82.90
78788;DHT22;68131;52.508;5.502;2024-02-14T00:39:15;9.20;82.80
78788;DHT22;68131;52.508;5.502;2024-02-14T00:41:46;9.20;82.80
78788;DHT22;68131;52.508;5.502;2024-02-14T00:44:15;9.20;82.90
78788;DHT22;68131;52.508;5.502;2024-02-14T00:46:48;9.20;82.90
78788;DHT22;68131;52.508;5.502;2024-02-14T00:49:17;9.20;82.90
78788;DHT22;68131;52.508;5.502;2024-02-14T00:51:46;9.20;82.90
78788;DHT22;68131;52.508;5.502;2024-02-14T00:54:15;9.30;82.90
78788;DHT22;68131;52.508;5.502;2024-02-14T00:56:44;9.30;82.90
78788;DHT22;68131;52.508;5.502;2024-02-14T00:59:13;9.30;82.90
78788;DHT22;68131;52.508;5.502;2024-02-14T01:01:43;9.30;82.80
78788;DHT22;68131;52.508;5.502;2024-02-14T01:04:14;9.30;82.80
78788;DHT22;68131;52.508;5.502;2024-02-14T01:06:43;9.30;82.80
78788;DHT22;68131;52.508;5.502;2024-02-14T01:09:15;9.30;82.90
78788;DHT22;68131;52.508;5.502;2024-02-14T01:11:45;9.30;82.90
78788;DHT22;68131;52.508;5.502;2024-02-14T01:14:15;9.40;83.00
78788;DHT22;68131;52.508;5.502;2024-02-14T01:16:44;9.40;83.00
78788;DHT22;68131;52.508;5.502;2024-02-14T01:19:17;9.40;83.00
78788;DHT22;68131;52.508;5.502;2024-02-14T01:21:49;9.40;83.00
78788;DHT22;68131;52.508;5.502;2024-02-14T01:24:19;9.40;83.20
78788;DHT22;68131;52.508;5.502;2024-02-14T01:26:48;9.40;83.20
78788;DHT22;68131;52.508;5.502;2024-02-14T01:29:18;9.50;83.20
78788;DHT22;68131;52.508;5.502;2024-02-14T01:31:47;9.50;83.20
78788;DHT22;68131;52.508;5.502;2024-02-14T01:34:22;9.50;83.10
78788;DHT22;68131;52.508;5.502;2024-02-14T01:36:51;9.50;83.20
78788;DHT22;68131;52.508;5.502;2024-02-14T01:39:21;9.60;83.20
78788;DHT22;68131;52.508;5.502;2024-02-14T01:41:50;9.60;83.30
78788;DHT22;68131;52.508;5.502;2024-02-14T01:44:19;9.60;83.40
78788;DHT22;68131;52.508;5.502;2024-02-14T01:46:48;9.60;83.50
78788;DHT22;68131;52.508;5.502;2024-02-14T01:49:21;9.70;83.50
78788;DHT22;68131;52.508;5.502;2024-02-14T01:51:55;9.70;83.60
78788;DHT22;68131;52.508;5.502;2024-02-14T01:54:26;9.70;83.70
78788;DHT22;68131;52.508;5.502;2024-02-14T01:56:56;9.70;83.80
78788;DHT22;68131;52.508;5.502;2024-02-14T01:59:26;9.80;83.80
78788;DHT22;68131;52.508;5.502;2024-02-14T02:01:56;9.80;83.80
78788;DHT22;68131;52.508;5.502;2024-02-14T02:04:28;9.90;83.80
78788;DHT22;68131;52.508;5.502;2024-02-14T02:06:57;9.90;83.90
78788;DHT22;68131;52.508;5.502;2024-02-14T02:09:28;9.90;83.90
78788;DHT22;68131;52.508;5.502;2024-02-14T02:12:00;10.00;83.80
78788;DHT22;68131;52.508;5.502;2024-02-14T02:14:32;10.00;83.90
78788;DHT22;68131;52.508;5.502;2024-02-14T02:17:02;10.00;84.00
78788;DHT22;68131;52.508;5.502;2024-02-14T02:19:36;10.00;84.00
78788;DHT22;68131;52.508;5.502;2024-02-14T02:22:05;10.10;84.00
78788;DHT22;68131;52.508;5.502;2024-02-14T02:24:37;10.10;84.00
78788;DHT22;68131;52.508;5.502;2024-02-14T02:27:06;10.10;84.10
78788;DHT22;68131;52.508;5.502;2024-02-14T02:29:36;10.20;84.00
78788;DHT22;68131;52.508;5.502;2024-02-14T02:32:05;10.20;84.00
78788;DHT22;68131;52.508;5.502;2024-02-14T02:34:38;10.20;84.00
78788;DHT22;68131;52.508;5.502;2024-02-14T02:37:07;10.20;84.10
78788;DHT22;68131;52.508;5.502;2024-02-14T02:39:39;10.20;84.10
78788;DHT22;68131;52.508;5.502;2024-02-14T02:42:08;10.20;84.30
78788;DHT22;68131;52.508;5.502;2024-02-14T02:44:39;10.20;84.40
78788;DHT22;68131;52.508;5.502;2024-02-14T02:47:08;10.20;84.30
78788;DHT22;68131;52.508;5.502;2024-02-14T02:49:40;10.20;84.40
78788;DHT22;68131;52.508;5.502;2024-02-14T02:52:10;10.20;84.40
78788;DHT22;68131;52.508;5.502;2024-02-14T02:54:42;10.20;84.50
78788;DHT22;68131;52.508;5.502;2024-02-14T02:57:13;10.30;84.50
78788;DHT22;68131;52.508;5.502;2024-02-14T02:59:45;10.30;84.50
78788;DHT22;68131;52.508;5.502;2024-02-14T03:02:14;10.30;84.60
78788;DHT22;68131;52.508;5.502;2024-02-14T03:04:45;10.30;84.70
78788;DHT22;68131;52.508;5.502;2024-02-14T03:07:14;10.30;84.60
78788;DHT22;68131;52.508;5.502;2024-02-14T03:09:45;10.30;84.60
78788;DHT22;68131;52.508;5.502;2024-02-14T03:12:14;10.30;84.70
78788;DHT22;68131;52.508;5.502;2024-02-14T03:14:45;10.30;84.60
78788;DHT22;68131;52.508;5.502;2024-02-14T03:17:15;10.40;84.60
78788;DHT22;68131;52.508;5.502;2024-02-14T03:19:47;10.40;84.60
78788;DHT22;68131;52.508;5.502;2024-02-14T03:22:18;10.40;84.60
78788;DHT22;68131;52.508;5.502;2024-02-14T03:24:50;10.40;84.60
78788;DHT22;68131;52.508;5.502;2024-02-14T03:27:19;10.40;84.60
78788;DHT22;68131;52.508;5.502;2024-02-14T03:29:51;10.40;84.60
78788;DHT22;68131;52.508;5.502;2024-02-14T03:32:22;10.40;84.60
78788;DHT22;68131;52.508;5.502;2024-02-14T03:34:52;10.40;84.60
78788;DHT22;68131;52.508;5.502;2024-02-14T03:37:21;10.40;84.60
78788;DHT22;68131;52.508;5.502;2024-02-14T03:39:53;10.40;84.60
78788;DHT22;68131;52.508;5.502;2024-02-14T03:42:22;10.40;84.60
78788;DHT22;68131;52.508;5.502;2024-02-14T03:44:52;10.40;84.50
78788;DHT22;68131;52.508;5.502;2024-02-14T03:47:28;10.50;84.50
78788;DHT22;68131;52.508;5.502;2024-02-14T03:49:58;10.40;84.50
78788;DHT22;68131;52.508;5.502;2024-02-14T03:52:28;10.50;84.50
78788;DHT22;68131;52.508;5.502;2024-02-14T03:55:01;10.50;84.50
78788;DHT22;68131;52.508;5.502;2024-02-14T03:57:30;10.50;84.40
78788;DHT22;68131;52.508;5.502;2024-02-14T04:00:02;10.50;84.50
78788;DHT22;68131;52.508;5.502;2024-02-14T04:02:40;10.50;84.50
78788;DHT22;68131;52.508;5.502;2024-02-14T04:05:09;10.50;84.50
78788;DHT22;68131;52.508;5.502;2024-02-14T04:07:40;10.50;84.60
78788;DHT22;68131;52.508;5.502;2024-02-14T04:10:17;10.50;84.60
78788;DHT22;68131;52.508;5.502;2024-02-14T04:12:47;10.50;84.60
78788;DHT22;68131;52.508;5.502;2024-02-14T04:15:16;10.50;84.60
78788;DHT22;68131;52.508;5.502;2024-02-14T04:17:45;10.60;84.50
78788;DHT22;68131;52.508;5.502;2024-02-14T04:20:14;10.50;84.60
78788;DHT22;68131;52.508;5.502;2024-02-14T04:22:43;10.60;84.60
78788;DHT22;68131;52.508;5.502;2024-02-14T04:25:13;10.60;84.60
78788;DHT22;68131;52.508;5.502;2024-02-14T04:27:44;10.60;84.60
78788;DHT22;68131;52.508;5.502;2024-02-14T04:30:14;10.70;84.60
78788;DHT22;68131;52.508;5.502;2024-02-14T04:32:43;10.70;84.70
78788;DHT22;68131;52.508;5.502;2024-02-14T04:35:12;10.70;84.60
78788;DHT22;68131;52.508;5.502;2024-02-14T04:37:41;10.70;84.60
78788;DHT22;68131;52.508;5.502;2024-02-14T04:40:13;10.70;84.60
78788;DHT22;68131;52.508;5.502;2024-02-14T04:42:45;10.70;84.60
78788;DHT22;68131;52.508;5.502;2024-02-14T04:45:14;10.70;84.60
78788;DHT22;68131;52.508;5.502;2024-02-14T04:47:43;10.80;84.70
78788;DHT22;68131;52.508;5.502;2024-02-14T04:50:12;10.80;84.70
78788;DHT22;68131;52.508;5.502;2024-02-14T04:52:41;10.80;84.70
78788;DHT22;68131;52.508;5.502;2024-02-14T04:55:11;10.80;84.80
78788;DHT22;68131;52.508;5.502;2024-02-14T04:57:40;10.80;84.80
78788;DHT22;68131;52.508;5.502;2024-02-14T05:00:16;10.90;84.70
78788;DHT22;68131;52.508;5.502;2024-02-14T05:02:45;10.90;84.80
78788;DHT22;68131;52.508;5.502;2024-02-14T05:05:15;10.90;84.80
78788;DHT22;68131;52.508;5.502;2024-02-14T05:07:46;10.90;84.90
78788;DHT22;68131;52.508;5.502;2024-02-14T05:10:18;11.00;84.90
78788;DHT22;68131;52.508;5.502;2024-02-14T05:12:47;11.00;84.90
78788;DHT22;68131;52.508;5.502;2024-02-14T05:15:19;11.00;85.00
78788;DHT22;68131;52.508;5.502;2024-02-14T05:17:48;11.00;84.90
78788;DHT22;68131;52.508;5.502;2024-02-14T05:20:18;11.00;84.90
78788;DHT22;68131;52.508;5.502;2024-02-14T05:22:47;11.00;85.00
78788;DHT22;68131;52.508;5.502;2024-02-14T05:25:16;11.00;85.10
78788;DHT22;68131;52.508;5.502;2024-02-14T05:27:45;11.00;85.10
78788;DHT22;68131;52.508;5.502;2024-02-14T05:30:19;11.10;85.00
78788;DHT22;68131;52.508;5.502;2024-02-14T05:32:48;11.10;85.00
78788;DHT22;68131;52.508;5.502;2024-02-14T05:35:18;11.10;85.00
78788;DHT22;68131;52.508;5.502;2024-02-14T05:37:47;11.10;85.00
78788;DHT22;68131;52.508;5.502;2024-02-14T05:40:17;11.10;85.00
78788;DHT22;68131;52.508;5.502;2024-02-14T05:42:49;11.10;85.00
78788;DHT22;68131;52.508;5.502;2024-02-14T05:45:21;11.10;85.00
78788;DHT22;68131;52.508;5.502;2024-02-14T05:47:51;11.10;85.10
78788;DHT22;68131;52.508;5.502;2024-02-14T05:50:22;11.20;85.00
78788;DHT22;68131;52.508;5.502;2024-02-14T05:52:51;11.20;85.00
78788;DHT22;68131;52.508;5.502;2024-02-14T05:55:21;11.20;85.10
78788;DHT22;68131;52.508;5.502;2024-02-14T05:57:50;11.20;85.10
78788;DHT22;68131;52.508;5.502;2024-02-14T06:00:22;11.20;85.00
78788;DHT22;68131;52.508;5.502;2024-02-14T06:02:52;11.20;85.00
78788;DHT22;68131;52.508;5.502;2024-02-14T06:05:21;11.20;84.90
78788;DHT22;68131;52.508;5.502;2024-02-14T06:07:50;11.20;84.90
78788;DHT22;68131;52.508;5.502;2024-02-14T06:10:19;11.20;84.90
78788;DHT22;68131;52.508;5.502;2024-02-14T06:12:48;11.20;84.90
78788;DHT22;68131;52.508;5.502;2024-02-14T06:15:18;11.20;84.90
78788;DHT22;68131;52.508;5.502;2024-02-14T06:17:50;11.30;84.90
78788;DHT22;68131;52.508;5.502;2024-02-14T06:20:19;11.30;84.80
78788;DHT22;68131;52.508;5.502;2024-02-14T06:22:49;11.30;84.90
78788;DHT22;68131;52.508;5.502;2024-02-14T06:25:18;11.30;84.90
78788;DHT22;68131;52.508;5.502;2024-02-14T06:27:47;11.30;84.80
78788;DHT22;68131;52.508;5.502;2024-02-14T06:30:16;11.30;84.70
78788;DHT22;68131;52.508;5.502;2024-02-14T06:32:45;11.30;84.80
78788;DHT22;68131;52.508;5.502;2024-02-14T06:35:17;11.30;84.80
78788;DHT22;68131;52.508;5.502;2024-02-14T06:37:47;11.30;84.70
78788;DHT22;68131;52.508;5.502;2024-02-14T06:40:16;11.30;84.80
78788;DHT22;68131;52.508;5.502;2024-02-14T06:42:45;11.40;84.70
78788;DHT22;68131;52.508;5.502;2024-02-14T06:45:17;11.40;84.70
78788;DHT22;68131;52.508;5.502;2024-02-14T06:47:46;11.40;84.70
78788;DHT22;68131;52.508;5.502;2024-02-14T06:50:19;11.40;84.70
78788;DHT22;68131;52.508;5.502;2024-02-14T06:52:51;11.40;84.80
78788;DHT22;68131;52.508;5.502;2024-02-14T06:55:20;11.40;84.70
78788;DHT22;68131;52.508;5.502;2024-02-14T06:57:49;11.40;84.70
78788;DHT22;68131;52.508;5.502;2024-02-14T07:00:20;11.40;84.70
78788;DHT22;68131;52.508;5.502;2024-02-14T07:02:49;11.50;84.70
78788;DHT22;68131;52.508;5.502;2024-02-14T07:05:21;11.50;84.70
78788;DHT22;68131;52.508;5.502;2024-02-14T07:07:52;11.50;84.60
78788;DHT22;68131;52.508;5.502;2024-02-14T07:10:22;11.50;84.60
78788;DHT22;68131;52.508;5.502;2024-02-14T07:12:51;11.50;84.60
78788;DHT22;68131;52.508;5.502;2024-02-14T07:15:20;11.50;84.50
78788;DHT22;68131;52.508;5.502;2024-02-14T07:17:53;11.50;84.50
78788;DHT22;68131;52.508;5.502;2024-02-14T07:20:26;11.50;84.50
78788;DHT22;68131;52.508;5.502;2024-02-14T07:22:56;11.50;84.50
78788;DHT22;68131;52.508;5.502;2024-02-14T07:25:25;11.60;84.50
78788;DHT22;68131;52.508;5.502;2024-02-14T07:27:54;11.50;84.40
78788;DHT22;68131;52.508;5.502;2024-02-14T07:30:23;11.60;84.50
78788;DHT22;68131;52.508;5.502;2024-02-14T07:32:52;11.60;84.50
78788;DHT22;68131;52.508;5.502;2024-02-14T07:35:22;11.60;84.50
78788;DHT22;68131;52.508;5.502;2024-02-14T07:37:54;11.60;84.60
78788;DHT22;68131;52.508;5.502;2024-02-14T07:40:24;11.60;84.50
78788;DHT22;68131;52.508;5.502;2024-02-14T07:42:54;11.60;84.50
78788;DHT22;68131;52.508;5.502;2024-02-14T07:45:27;11.60;84.50
78788;DHT22;68131;52.508;5.502;2024-02-14T07:47:56;11.60;84.50
78788;DHT22;68131;52.508;5.502;2024-02-14T07:50:25;11.60;84.50
78788;DHT22;68131;52.508;5.502;2024-02-14T07:52:58;11.60;84.50
78788;DHT22;68131;52.508;5.502;2024-02-14T07:55:27;11.60;84.50
78788;DHT22;68131;52.508;5.502;2024-02-14T07:57:56;11.60;84.50
78788;DHT22;68131;52.508;5.502;2024-02-14T08:00:25;11.60;84.50
78788;DHT22;68131;52.508;5.502;2024-02-14T08:02:55;11.60;84.50
78788;DHT22;68131;52.508;5.502;2024-02-14T08:05:24;11.60;84.50
78788;DHT22;68131;52.508;5.502;2024-02-14T08:07:53;11.60;84.60
78788;DHT22;68131;52.508;5.502;2024-02-14T08:10:24;11.70;84.60
78788;DHT22;68131;52.508;5.502;2024-02-14T08:12:54;11.70;84.60
78788;DHT22;68131;52.508;5.502;2024-02-14T08:15:23;11.70;84.60
78788;DHT22;68131;52.508;5.502;2024-02-14T08:17:52;11.70;84.60
78788;DHT22;68131;52.508;5.502;2024-02-14T08:20:22;11.80;84.60
78788;DHT22;68131;52.508;5.502;2024-02-14T08:22:51;11.80;84.50
78788;DHT22;68131;52.508;5.502;2024-02-14T08:25:21;11.80;84.50
78788;DHT22;68131;52.508;5.502;2024-02-14T08:27:52;11.80;84.50
78788;DHT22;68131;52.508;5.502;2024-02-14T08:30:21;11.80;84.50
78788;DHT22;68131;52.508;5.502;2024-02-14T08:32:51;11.80;84.50
78788;DHT22;68131;52.508;5.502;2024-02-14T08:35:20;11.80;84.50
78788;DHT22;68131;52.508;5.502;2024-02-14T08:37:49;11.80;84.50
78788;DHT22;68131;52.508;5.502;2024-02-14T08:40:18;11.80;84.50
78788;DHT22;68131;52.508;5.502;2024-02-14T08:42:47;11.80;84.60
78788;DHT22;68131;52.508;5.502;2024-02-14T08:45:19;11.80;84.60
78788;DHT22;68131;52.508;5.502;2024-02-14T08:47:49;11.80;84.60
78788;DHT22;68131;52.508;5.502;2024-02-14T08:50:18;11.80;84.70
78788;DHT22;68131;52.508;5.502;2024-02-14T08:52:47;11.80;84.70
78788;DHT22;68131;52.508;5.502;2024-02-14T08:55:16;11.80;84.70
78788;DHT22;68131;52.508;5.502;2024-02-14T08:57:46;11.90;84.70
78788;DHT22;68131;52.508;5.502;2024-02-14T09:00:18;11.90;84.70
78788;DHT22;68131;52.508;5.502;2024-02-14T09:02:48;11.90;84.70
78788;DHT22;68131;52.508;5.502;2024-02-14T09:05:19;11.90;84.70
78788;DHT22;68131;52.508;5.502;2024-02-14T09:07:48;11.90;84.70
78788;DHT22;68131;52.508;5.502;2024-02-14T09:10:18;11.90;84.60
78788;DHT22;68131;52.508;5.502;2024-02-14T09:12:47;11.90;84.60
78788;DHT22;68131;52.508;5.502;2024-02-14T09:15:19;11.90;84.60
78788;DHT22;68131;52.508;5.502;2024-02-14T09:17:48;11.90;84.70
78788;DHT22;68131;52.508;5.502;2024-02-14T09:20:21;11.90;84.70
78788;DHT22;68131;52.508;5.502;2024-02-14T09:22:51;12.00;84.70
78788;DHT22;68131;52.508;5.502;2024-02-14T09:25:20;12.00;84.80
78788;DHT22;68131;52.508;5.502;2024-02-14T09:27:49;12.00;84.70
78788;DHT22;68131;52.508;5.502;2024-02-14T09:30:21;12.00;84.70
78788;DHT22;68131;52.508;5.502;2024-02-14T09:32:50;12.00;84.70
78788;DHT22;68131;52.508;5.502;2024-02-14T09:35:21;12.00;84.70
78788;DHT22;68131;52.508;5.502;2024-02-14T09:37:51;12.00;84.70
78788;DHT22;68131;52.508;5.502;2024-02-14T09:40:20;12.10;84.70
78788;DHT22;68131;52.508;5.502;2024-02-14T09:42:53;12.10;84.70
78788;DHT22;68131;52.508;5.502;2024-02-14T09:45:27;12.10;84.70
78788;DHT22;68131;52.508;5.502;2024-02-14T09:47:57;12.10;84.60
78788;DHT22;68131;52.508;5.502;2024-02-14T09:50:29;12.10;84.70
78788;DHT22;68131;52.508;5.502;2024-02-14T09:53:00;12.10;84.70
78788;DHT22;68131;52.508;5.502;2024-02-14T09:55:29;12.10;84.70
78788;DHT22;68131;52.508;5.502;2024-02-14T09:58:00;12.20;84.70
78788;DHT22;68131;52.508;5.502;2024-02-14T10:00:35;12.20;84.60
78788;DHT22;68131;52.508;5.502;2024-02-14T10:03:07;12.20;84.60
78788;DHT22;68131;52.508;5.502;2024-02-14T10:05:36;12.20;84.50
78788;DHT22;68131;52.508;5.502;2024-02-14T10:08:06;12.20;84.40
78788;DHT22;68131;52.508;5.502;2024-02-14T10:10:35;12.20;84.40
78788;DHT22;68131;52.508;5.502;2024-02-14T10:13:06;12.20;84.30
78788;DHT22;68131;52.508;5.502;2024-02-14T10:15:40;12.20;84.40
78788;DHT22;68131;52.508;5.502;2024-02-14T10:18:09;12.20;84.40
78788;DHT22;68131;52.508;5.502;2024-02-14T10:20:40;12.20;84.40
78788;DHT22;68131;52.508;5.502;2024-02-14T10:23:11;12.20;84.40
78788;DHT22;68131;52.508;5.502;2024-02-14T10:25:40;12.30;84.40
78788;DHT22;68131;52.508;5.502;2024-02-14T10:28:09;12.30;84.40
78788;DHT22;68131;52.508;5.502;2024-02-14T10:30:45;12.30;84.30
78788;DHT22;68131;52.508;5.502;2024-02-14T10:33:15;12.40;84.30
78788;DHT22;68131;52.508;5.502;2024-02-14T10:35:45;12.40;84.10
78788;DHT22;68131;52.508;5.502;2024-02-14T10:38:16;12.50;84.10
78788;DHT22;68131;52.508;5.502;2024-02-14T10:40:47;12.50;84.00
78788;DHT22;68131;52.508;5.502;2024-02-14T10:43:16;12.50;83.90
78788;DHT22;68131;52.508;5.502;2024-02-14T10:45:50;12.50;83.90
78788;DHT22;68131;52.508;5.502;2024-02-14T10:48:22;12.50;83.80
78788;DHT22;68131;52.508;5.502;2024-02-14T10:50:53;12.50;83.80
78788;DHT22;68131;52.508;5.502;2024-02-14T10:53:23;12.50;83.80
78788;DHT22;68131;52.508;5.502;2024-02-14T10:55:55;12.50;83.90
78788;DHT22;68131;52.508;5.502;2024-02-14T10:58:28;12.50;83.80
78788;DHT22;68131;52.508;5.502;2024-02-14T11:01:01;12.50;83.80
78788;DHT22;68131;52.508;5.502;2024-02-14T11:03:31;12.50;83.80
78788;DHT22;68131;52.508;5.502;2024-02-14T11:06:01;12.40;83.80
78788;DHT22;68131;52.508;5.502;2024-02-14T11:08:31;12.40;83.80
78788;DHT22;68131;52.508;5.502;2024-02-14T11:11:01;12.40;83.90
78788;DHT22;68131;52.508;5.502;2024-02-14T11:13:32;12.40;83.80
78788;DHT22;68131;52.508;5.502;2024-02-14T11:16:09;12.50;83.90
78788;DHT22;68131;52.508;5.502;2024-02-14T11:18:38;12.40;83.90
78788;DHT22;68131;52.508;5.502;2024-02-14T11:21:16;12.40;83.90
78788;DHT22;68131;52.508;5.502;2024-02-14T11:23:52;12.50;83.90
78788;DHT22;68131;52.508;5.502;2024-02-14T11:26:23;12.50;84.00
78788;DHT22;68131;52.508;5.502;2024-02-14T11:29:00;12.50;83.90
78788;DHT22;68131;52.508;5.502;2024-02-14T11:31:35;12.50;83.90
78788;DHT22;68131;52.508;5.502;2024-02-14T11:34:05;12.50;83.90
78788;DHT22;68131;52.508;5.502;2024-02-14T11:36:35;12.50;83.90
78788;DHT22;68131;52.508;5.502;2024-02-14T11:39:05;12.60;83.90
78788;DHT22;68131;52.508;5.502;2024-02-14T11:41:35;12.60;83.90
78788;DHT22;68131;52.508;5.502;2024-02-14T11:44:05;12.60;83.90
78788;DHT22;68131;52.508;5.502;2024-02-14T11:46:37;12.60;83.80
78788;DHT22;68131;52.508;5.502;2024-02-14T11:49:08;12.60;83.80
78788;DHT22;68131;52.508;5.502;2024-02-14T11:51:38;12.60;83.70
78788;DHT22;68131;52.508;5.502;2024-02-14T11:54:07;12.60;83.70
78788;DHT22;68131;52.508;5.502;2024-02-14T11:56:38;12.60;83.70
78788;DHT22;68131;52.508;5.502;2024-02-14T11:59:08;12.60;83.70
78788;DHT22;68131;52.508;5.502;2024-02-14T12:01:39;12.60;83.70
78788;DHT22;68131;52.508;5.502;2024-02-14T12:04:10;12.60;83.70
78788;DHT22;68131;52.508;5.502;2024-02-14T12:06:40;12.60;83.70
78788;DHT22;68131;52.508;5.502;2024-02-14T12:09:11;12.60;83.70
78788;DHT22;68131;52.508;5.502;2024-02-14T12:11:41;12.60;83.70
78788;DHT22;68131;52.508;5.502;2024-02-14T12:14:12;12.60;83.70
78788;DHT22;68131;52.508;5.502;2024-02-14T12:16:44;12.60;83.80
78788;DHT22;68131;52.508;5.502;2024-02-14T12:19:14;12.60;83.80
78788;DHT22;68131;52.508;5.502;2024-02-14T12:21:45;12.60;83.80
78788;DHT22;68131;52.508;5.502;2024-02-14T12:24:15;12.60;83.80
78788;DHT22;68131;52.508;5.502;2024-02-14T12:26:44;12.60;83.90
78788;DHT22;68131;52.508;5.502;2024-02-14T12:29:16;12.60;83.90
78788;DHT22;68131;52.508;5.502;2024-02-14T12:31:48;12.60;84.00
78788;DHT22;68131;52.508;5.502;2024-02-14T12:34:17;12.70;84.00
78788;DHT22;68131;52.508;5.502;2024-02-14T12:36:47;12.70;84.00
78788;DHT22;68131;52.508;5.502;2024-02-14T12:39:16;12.70;84.10
78788;DHT22;68131;52.508;5.502;2024-02-14T12:41:46;12.80;84.10
78788;DHT22;68131;52.508;5.502;2024-02-14T12:44:13;12.80;84.20
78788;DHT22;68131;52.508;5.502;2024-02-14T12:46:42;12.80;84.10
78788;DHT22;68131;52.508;5.502;2024-02-14T12:49:14;12.90;84.10
78788;DHT22;68131;52.508;5.502;2024-02-14T12:51:43;12.90;84.00
78788;DHT22;68131;52.508;5.502;2024-02-14T12:54:13;12.90;84.00
78788;DHT22;68131;52.508;5.502;2024-02-14T12:56:42;12.90;84.10
78788;DHT22;68131;52.508;5.502;2024-02-14T12:59:17;12.90;84.00
78788;DHT22;68131;52.508;5.502;2024-02-14T13:01:47;12.90;84.00
78788;DHT22;68131;52.508;5.502;2024-02-14T13:04:19;12.90;83.90
78788;DHT22;68131;52.508;5.502;2024-02-14T13:06:48;12.90;83.80
78788;DHT22;68131;52.508;5.502;2024-02-14T13:09:18;12.90;83.80
78788;DHT22;68131;52.508;5.502;2024-02-14T13:11:47;12.90;83.80
78788;DHT22;68131;52.508;5.502;2024-02-14T13:14:17;12.90;83.80
78788;DHT22;68131;52.508;5.502;2024-02-14T13:16:47;12.90;83.80
78788;DHT22;68131;52.508;5.502;2024-02-14T13:19:19;12.90;83.80
78788;DHT22;68131;52.508;5.502;2024-02-14T13:21:48;12.90;83.90
78788;DHT22;68131;52.508;5.502;2024-02-14T13:24:17;12.80;83.90
78788;DHT22;68131;52.508;5.502;2024-02-14T13:26:46;12.80;84.00
78788;DHT22;68131;52.508;5.502;2024-02-14T13:29:15;12.80;84.00
78788;DHT22;68131;52.508;5.502;2024-02-14T13:31:45;12.90;84.00
78788;DHT22;68131;52.508;5.502;2024-02-14T13:34:18;12.80;84.00
78788;DHT22;68131;52.508;5.502;2024-02-14T13:36:47;12.80;84.10
78788;DHT22;68131;52.508;5.502;2024-02-14T13:39:17;12.90;84.10
78788;DHT22;68131;52.508;5.502;2024-02-14T13:41:46;12.90;84.10
78788;DHT22;68131;52.508;5.502;2024-02-14T13:44:15;12.90;84.00
78788;DHT22;68131;52.508;5.502;2024-02-14T13:46:46;12.90;84.00
78788;DHT22;68131;52.508;5.502;2024-02-14T13:49:19;12.90;84.00
78788;DHT22;68131;52.508;5.502;2024-02-14T13:51:48;12.90;84.10
78788;DHT22;68131;52.508;5.502;2024-02-14T13:54:18;12.90;84.10
78788;DHT22;68131;52.508;5.502;2024-02-14T13:56:47;12.90;84.10
78788;DHT22;68131;52.508;5.502;2024-02-14T13:59:17;12.90;84.00
78788;DHT22;68131;52.508;5.502;2024-02-14T14:01:47;12.90;84.00
78788;DHT22;68131;52.508;5.502;2024-02-14T14:04:18;13.00;84.00
78788;DHT22;68131;52.508;5.502;2024-02-14T14:06:47;13.00;84.10
78788;DHT22;68131;52.508;5.502;2024-02-14T14:09:17;13.00;84.10
78788;DHT22;68131;52.508;5.502;2024-02-14T14:11:46;13.00;84.00
78788;DHT22;68131;52.508;5.502;2024-02-14T14:14:17;13.00;84.00
78788;DHT22;68131;52.508;5.502;2024-02-14T14:16:46;13.00;84.00
78788;DHT22;68131;52.508;5.502;2024-02-14T14:19:18;13.00;84.10
78788;DHT22;68131;52.508;5.502;2024-02-14T14:21:47;13.00;84.00
78788;DHT22;68131;52.508;5.502;2024-02-14T14:24:17;13.00;83.90
78788;DHT22;68131;52.508;5.502;2024-02-14T14:26:47;13.00;83.90
78788;DHT22;68131;52.508;5.502;2024-02-14T14:29:17;13.00;83.90
78788;DHT22;68131;52.508;5.502;2024-02-14T14:31:46;13.00;83.90
78788;DHT22;68131;52.508;5.502;2024-02-14T14:34:18;13.00;83.90
78788;DHT22;68131;52.508;5.502;2024-02-14T14:36:47;13.00;84.00
78788;DHT22;68131;52.508;5.502;2024-02-14T14:39:17;13.00;84.00
78788;DHT22;68131;52.508;5.502;2024-02-14T14:41:47;13.00;83.90
78788;DHT22;68131;52.508;5.502;2024-02-14T14:44:17;13.00;83.90
78788;DHT22;68131;52.508;5.502;2024-02-14T14:46:46;13.00;83.90
78788;DHT22;68131;52.508;5.502;2024-02-14T14:49:18;13.00;83.90
78788;DHT22;68131;52.508;5.502;2024-02-14T14:51:47;12.90;84.00
78788;DHT22;68131;52.508;5.502;2024-02-14T14:54:17;12.90;84.00
78788;DHT22;68131;52.508;5.502;2024-02-14T14:56:53;12.90;84.10
78788;DHT22;68131;52.508;5.502;2024-02-14T14:59:22;12.90;84.20
78788;DHT22;68131;52.508;5.502;2024-02-14T15:01:51;12.90;84.20
78788;DHT22;68131;52.508;5.502;2024-02-14T15:04:23;12.90;84.20
78788;DHT22;68131;52.508;5.502;2024-02-14T15:06:55;12.90;84.20
78788;DHT22;68131;52.508;5.502;2024-02-14T15:09:25;12.90;84.30
78788;DHT22;68131;52.508;5.502;2024-02-14T15:11:54;12.90;84.30
78788;DHT22;68131;52.508;5.502;2024-02-14T15:14:23;12.90;84.30
78788;DHT22;68131;52.508;5.502;2024-02-14T15:16:52;12.90;84.40
78788;DHT22;68131;52.508;5.502;2024-02-14T15:19:24;12.90;84.50
78788;DHT22;68131;52.508;5.502;2024-02-14T15:21:54;12.90;84.40
78788;DHT22;68131;52.508;5.502;2024-02-14T15:24:28;12.90;84.40
78788;DHT22;68131;52.508;5.502;2024-02-14T15:26:57;12.90;84.40
78788;DHT22;68131;52.508;5.502;2024-02-14T15:29:28;12.90;84.40
78788;DHT22;68131;52.508;5.502;2024-02-14T15:32:10;12.90;84.50
78788;DHT22;68131;52.508;5.502;2024-02-14T15:34:54;12.90;84.40
78788;DHT22;68131;52.508;5.502;2024-02-14T15:37:24;12.90;84.50
78788;DHT22;68131;52.508;5.502;2024-02-14T15:39:53;12.90;84.40
78788;DHT22;68131;52.508;5.502;2024-02-14T15:42:23;12.90;84.50
78788;DHT22;68131;52.508;5.502;2024-02-14T15:44:52;12.90;84.50
78788;DHT22;68131;52.508;5.502;2024-02-14T15:47:22;12.90;84.50
78788;DHT22;68131;52.508;5.502;2024-02-14T15:49:53;12.90;84.50
78788;DHT22;68131;52.508;5.502;2024-02-14T15:52:23;12.90;84.50